Time;durP1;ratioP1;P1;durP2;ratioP2;P2;SDS_P1;SDS_P2;PMS_P1;PMS_P2;Temp;Humidity;BMP_temperature;BMP_pressure;BME280_temperature;BME280_humidity;BME280_pressure;Samples;Min_cycle;Max_cycle;Signal;HPM_P1;HPM_P2
2022/03/22 09:58:06;;;;;;;7.65;2.58;;;23.00;80.70;;;;;;5042822;28;20143;-63
2022/03/22 10:00:34;;;;;;;10.05;2.67;;;23.00;80.80;;;;;;5047186;28;20411;-63
2022/03/22 10:03:01;;;;;;;8.32;2.17;;;23.00;80.80;;;;;;5043568;28;20491;-64
2022/03/22 10:05:29;;;;;;;11.32;2.85;;;23.00;80.90;;;;;;5035175;28;20044;-64
2022/03/22 10:08:06;;;;;;;16.98;3.15;;;23.00;80.90;;;;;;5043016;28;20132;-64
2022/03/22 10:10:33;;;;;;;8.18;2.33;;;23.00;80.90;;;;;;5051443;28;20108;-64
2022/03/22 10:13:03;;;;;;;14.90;3.05;;;23.00;80.80;;;;;;5044562;28;20108;-64
2022/03/22 10:15:36;;;;;;;;;;;23.00;80.90;;;;;;5034158;28;20589;-62
2022/03/22 10:18:08;;;;;;;8.23;2.80;;;23.00;80.90;;;;;;5051698;28;19951;-62
2022/03/22 10:20:37;;;;;;;7.88;2.40;;;22.90;80.90;;;;;;5051008;28;20044;-62
2022/03/22 10:23:05;;;;;;;6.72;2.67;;;23.00;80.90;;;;;;5013725;28;20026;-62
2022/03/22 10:25:33;;;;;;;8.10;2.53;;;22.90;80.80;;;;;;5047605;28;20037;-62
2022/03/22 10:28:02;;;;;;;6.95;2.40;;;23.00;80.80;;;;;;5046746;28;20056;-62
2022/03/22 10:30:29;;;;;;;6.95;2.45;;;22.90;80.90;;;;;;5045959;28;20029;-63
2022/03/22 10:32:57;;;;;;;8.25;2.95;;;23.00;81.00;;;;;;5049560;28;20045;-63
2022/03/22 10:35:28;;;;;;;9.15;2.45;;;22.90;81.10;;;;;;5050967;28;20037;-63
2022/03/22 10:38:06;;;;;;;9.90;2.70;;;22.90;81.20;;;;;;5046612;28;20033;-63
2022/03/22 10:40:42;;;;;;;8.73;2.60;;;22.90;81.20;;;;;;5032769;28;20044;-62
2022/03/22 10:43:20;;;;;;;7.35;2.40;;;22.80;81.20;;;;;;5044642;28;20391;-63
2022/03/22 10:45:59;;;;;;;6.78;2.25;;;22.90;81.20;;;;;;5049235;28;20112;-63
2022/03/22 10:48:30;;;;;;;10.10;2.67;;;22.90;81.10;;;;;;5051019;28;20112;-63
2022/03/22 10:50:59;;;;;;;10.82;2.70;;;22.90;81.00;;;;;;5029996;28;20067;-62
2022/03/22 10:53:27;;;;;;;10.80;2.80;;;22.80;81.10;;;;;;5042024;28;20112;-60
2022/03/22 10:55:55;;;;;;;11.23;2.92;;;22.80;81.20;;;;;;5045667;28;20041;-60
2022/03/22 10:58:25;;;;;;;8.18;2.55;;;22.80;81.20;;;;;;5032698;28;20403;-60
2022/03/22 11:00:52;;;;;;;12.02;2.50;;;22.80;81.30;;;;;;5039485;28;20041;-62
2022/03/22 11:03:20;;;;;;;8.43;2.70;;;22.80;81.20;;;;;;5030968;28;20403;-62
2022/03/22 11:05:53;;;;;;;13.68;2.53;;;22.80;81.40;;;;;;5031505;28;20041;-62
2022/03/22 11:08:22;;;;;;;9.63;3.00;;;22.80;81.40;;;;;;5021249;28;20046;-63
2022/03/22 11:10:54;;;;;;;8.52;2.50;;;22.80;81.30;;;;;;5029861;28;20040;-62
2022/03/22 11:13:24;;;;;;;6.97;2.95;;;22.80;81.30;;;;;;5047470;28;20116;-62
2022/03/22 11:15:52;;;;;;;7.97;2.47;;;22.80;81.50;;;;;;5047938;28;20078;-61
2022/03/22 11:18:20;;;;;;;7.30;2.40;;;22.80;81.30;;;;;;5032852;28;20083;-61
2022/03/22 11:20:59;;;;;;;7.53;2.25;;;22.80;81.30;;;;;;5031825;28;20036;-62
2022/03/22 11:23:31;;;;;;;7.87;2.57;;;22.80;81.40;;;;;;5033907;28;20037;-62
2022/03/22 11:26:11;;;;;;;6.10;2.58;;;22.80;81.40;;;;;;5032949;28;20551;-62
2022/03/22 11:28:39;;;;;;;8.00;2.80;;;22.80;81.40;;;;;;5045124;28;20057;-62
2022/03/22 11:31:10;;;;;;;13.30;2.67;;;22.80;81.50;;;;;;5049020;28;20033;-62
2022/03/22 11:36:28;;;;;;;7.25;2.10;;;22.80;81.60;;;;;;5050618;28;20509;-64
2022/03/22 11:38:56;;;;;;;7.13;2.95;;;22.70;81.80;;;;;;5050440;28;20071;-61
2022/03/22 11:44:36;;;;;;;6.43;2.70;;;22.70;81.80;;;;;;5051892;28;20040;-62
2022/03/22 11:47:17;;;;;;;7.80;2.30;;;22.70;81.80;;;;;;5052988;28;20044;-61
2022/03/22 11:49:49;;;;;;;10.75;2.70;;;22.70;81.70;;;;;;5054201;28;20048;-61
2022/03/22 11:52:17;;;;;;;7.03;2.50;;;22.70;81.60;;;;;;5054620;28;20403;-61
2022/03/22 11:55:00;;;;;;;7.45;2.60;;;22.70;81.50;;;;;;5036680;28;20036;-61
2022/03/22 11:57:28;;;;;;;7.20;2.30;;;22.70;81.50;;;;;;5032804;28;20040;-61
2022/03/22 11:59:55;;;;;;;5.65;2.30;;;22.70;81.50;;;;;;5034287;28;20057;-62
2022/03/22 12:02:32;;;;;;;7.30;2.40;;;22.60;81.60;;;;;;5054239;28;20031;-61
2022/03/22 12:05:00;;;;;;;9.68;2.42;;;22.60;81.60;;;;;;5054356;28;20051;-61
2022/03/22 12:07:33;;;;;;;7.88;2.65;;;22.60;81.60;;;;;;5043207;28;20049;-61
2022/03/22 12:10:12;;;;;;;6.88;2.55;;;22.60;81.50;;;;;;5025766;28;20144;-62
2022/03/22 12:12:42;;;;;;;6.35;2.03;;;22.50;81.60;;;;;;5040426;28;20060;-62
2022/03/22 12:15:11;;;;;;;9.05;2.88;;;22.50;81.50;;;;;;5053599;28;20060;-62
2022/03/22 12:17:39;;;;;;;7.20;2.67;;;22.50;81.50;;;;;;5036264;28;20116;-62
2022/03/22 12:20:11;;;;;;;8.43;2.30;;;22.50;81.50;;;;;;5053431;28;20102;-62
2022/03/22 12:22:49;;;;;;;8.55;2.47;;;22.50;81.60;;;;;;5053719;28;20490;-62
2022/03/22 12:25:19;;;;;;;6.13;2.53;;;22.50;81.50;;;;;;5020626;28;20036;-62
2022/03/22 12:27:50;;;;;;;;;;;22.50;81.60;;;;;;5040605;28;20444;-61
2022/03/22 12:30:20;;;;;;;6.43;2.53;;;22.50;81.50;;;;;;5053411;28;19928;-61
2022/03/22 12:32:50;;;;;;;7.20;2.60;;;22.40;81.50;;;;;;5053050;28;20116;-61
2022/03/22 12:35:17;;;;;;;6.97;2.35;;;22.40;81.50;;;;;;5053296;28;20037;-61
2022/03/22 12:37:45;;;;;;;6.78;2.38;;;22.50;81.40;;;;;;5052414;28;20044;-61
2022/03/22 12:40:13;;;;;;;6.72;2.58;;;22.40;81.10;;;;;;5052539;28;20040;-61
2022/03/22 12:42:40;;;;;;;8.90;2.55;;;22.50;80.80;;;;;;5021699;28;20082;-61
2022/03/22 12:45:09;;;;;;;6.63;2.33;;;22.50;80.50;;;;;;5042784;28;20422;-60
2022/03/22 12:47:37;;;;;;;9.32;2.63;;;22.40;80.40;;;;;;5042996;28;20076;-60
2022/03/22 12:50:08;;;;;;;6.32;2.28;;;22.40;80.00;;;;;;5035434;28;20025;-61
2022/03/22 12:52:35;;;;;;;6.15;2.80;;;22.40;79.90;;;;;;5053055;28;20103;-61
2022/03/22 12:55:03;;;;;;;6.68;2.80;;;22.40;79.70;;;;;;5051759;28;20095;-60
2022/03/22 12:57:30;;;;;;;6.20;2.40;;;22.40;79.60;;;;;;5052564;28;20036;-60
2022/03/22 12:59:57;;;;;;;6.78;2.60;;;22.50;79.20;;;;;;5034767;28;20048;-60
2022/03/22 13:02:24;;;;;;;6.40;2.53;;;22.40;79.20;;;;;;5053119;28;20048;-61
2022/03/22 13:04:53;;;;;;;6.47;2.60;;;22.50;78.80;;;;;;5053113;28;20039;-60
2022/03/22 13:07:22;;;;;;;6.37;2.43;;;22.40;78.60;;;;;;5052546;28;20491;-60
2022/03/22 13:12:35;;;;;;;7.32;2.85;;;22.50;77.80;;;;;;5018458;28;20043;-60
2022/03/22 13:15:07;;;;;;;5.78;2.42;;;22.50;77.50;;;;;;5032297;28;20040;-60
2022/03/22 13:17:45;;;;;;;11.45;3.15;;;22.50;77.60;;;;;;5052463;28;20040;-61
2022/03/22 13:20:21;;;;;;;8.00;2.75;;;22.50;77.60;;;;;;5052846;28;20115;-60
2022/03/22 13:22:56;;;;;;;5.85;2.25;;;22.50;77.20;;;;;;5053251;28;20033;-61
2022/03/22 13:25:36;;;;;;;4.43;2.22;;;22.50;76.90;;;;;;5033622;28;20037;-61
2022/03/22 13:28:11;;;;;;;4.85;2.42;;;22.50;76.50;;;;;;5052465;28;20041;-60
2022/03/22 13:30:40;;;;;;;5.20;2.50;;;22.50;76.50;;;;;;5019012;28;20516;-61
2022/03/22 13:33:17;;;;;;;5.47;3.00;;;22.50;76.20;;;;;;5034144;28;20048;-61
2022/03/22 13:35:56;;;;;;;5.65;2.70;;;22.50;76.20;;;;;;5052259;28;20048;-60
2022/03/22 13:38:23;;;;;;;7.75;2.55;;;22.50;75.90;;;;;;5052651;28;20501;-61
2022/03/22 13:40:57;;;;;;;5.65;2.40;;;22.50;75.80;;;;;;5052478;28;20383;-60
2022/03/22 13:43:27;;;;;;;6.47;2.63;;;22.50;75.60;;;;;;5051759;28;20071;-60
2022/03/22 13:45:56;;;;;;;5.60;2.75;;;22.50;75.50;;;;;;5052253;28;20045;-60
2022/03/22 13:48:23;;;;;;;6.85;2.70;;;22.50;75.40;;;;;;5051267;28;20099;-60
2022/03/22 13:50:52;;;;;;;7.70;2.30;;;22.50;75.30;;;;;;5033425;28;20124;-60
2022/03/22 13:53:23;;;;;;;4.47;2.20;;;22.50;75.10;;;;;;5034499;28;20039;-60
2022/03/22 13:56:09;;;;;;;5.57;2.30;;;22.60;75.00;;;;;;5034616;28;20029;-61
2022/03/22 13:58:43;;;;;;;5.93;2.30;;;22.50;75.00;;;;;;5052127;28;20463;-61
2022/03/22 14:01:13;;;;;;;3.65;2.28;;;22.50;74.80;;;;;;5038995;28;20041;-61
2022/03/22 14:03:40;;;;;;;4.43;2.20;;;22.50;74.80;;;;;;5049935;28;20060;-62
2022/03/22 14:06:07;;;;;;;5.70;2.58;;;22.50;74.70;;;;;;5051537;28;20286;-61
2022/03/22 14:08:36;;;;;;;6.47;2.60;;;22.50;74.70;;;;;;5051016;28;20045;-61
2022/03/22 14:11:03;;;;;;;5.60;2.65;;;22.60;74.70;;;;;;5051643;28;20033;-61
2022/03/22 14:13:33;;;;;;;6.25;2.40;;;22.60;74.80;;;;;;5050706;28;20045;-61
2022/03/22 14:16:01;;;;;;;4.25;2.30;;;22.50;74.80;;;;;;5034245;28;20036;-61
2022/03/22 14:18:28;;;;;;;6.68;2.60;;;22.50;74.70;;;;;;5051691;28;20041;-61
2022/03/22 14:20:55;;;;;;;4.18;2.20;;;22.50;74.60;;;;;;5051190;28;20041;-61
2022/03/22 14:23:24;;;;;;;7.22;2.58;;;22.60;74.50;;;;;;5051129;28;20440;-61
2022/03/22 14:25:52;;;;;;;5.57;2.40;;;22.50;74.50;;;;;;5033945;28;20037;-61
2022/03/22 14:28:20;;;;;;;5.88;2.30;;;22.50;74.60;;;;;;5050642;28;20045;-61
2022/03/22 14:30:48;;;;;;;6.07;2.60;;;22.50;74.60;;;;;;5050347;28;20223;-61
2022/03/22 14:33:17;;;;;;;4.22;2.38;;;22.50;75.00;;;;;;5050826;28;20407;-61
2022/03/22 14:35:53;;;;;;;4.35;2.47;;;22.50;75.10;;;;;;5051329;28;20029;-61
2022/03/22 14:38:20;;;;;;;8.63;3.13;;;22.40;75.20;;;;;;5051340;28;20124;-61
2022/03/22 14:40:48;;;;;;;15.27;4.53;;;22.40;75.60;;;;;;5051537;28;20028;-61
2022/03/22 14:43:16;;;;;;;18.90;4.75;;;22.40;76.40;;;;;;5050701;28;20029;-61
2022/03/22 14:45:47;;;;;;;14.45;3.05;;;22.40;77.00;;;;;;5047625;28;20037;-61
2022/03/22 14:48:21;;;;;;;6.15;3.22;;;22.30;76.80;;;;;;5050202;28;20139;-61
2022/03/22 14:50:49;;;;;;;6.60;3.08;;;22.30;76.60;;;;;;5051091;28;20033;-61
2022/03/22 14:58:49;;;;;;;4.60;2.70;;;22.30;76.20;;;;;;5050717;28;20114;-63
2022/03/22 15:01:16;;;;;;;4.73;2.10;;;22.30;76.20;;;;;;5049891;28;20033;-60
2022/03/22 15:03:44;;;;;;;4.43;2.53;;;22.30;76.00;;;;;;5048470;28;20068;-61
2022/03/22 15:06:14;;;;;;;5.32;2.67;;;22.30;76.10;;;;;;5050424;28;20497;-61
2022/03/22 15:08:43;;;;;;;17.08;3.70;;;22.30;76.60;;;;;;5050742;28;20124;-60
2022/03/22 15:11:10;;;;;;;17.35;4.35;;;22.30;76.90;;;;;;5050875;28;20573;-61
2022/03/22 15:13:37;;;;;;;11.85;3.17;;;22.30;77.50;;;;;;5050489;28;20037;-61
2022/03/22 15:16:06;;;;;;;4.65;2.72;;;22.20;77.50;;;;;;5034173;28;20045;-61
2022/03/22 15:18:33;;;;;;;7.15;2.88;;;22.20;77.30;;;;;;5012928;28;20038;-61
2022/03/22 15:21:01;;;;;;;5.60;2.55;;;22.20;77.30;;;;;;5013203;28;20061;-62
2022/03/22 15:23:28;;;;;;;4.45;2.33;;;22.20;77.20;;;;;;5049127;28;20368;-61
2022/03/22 15:25:55;;;;;;;5.22;2.63;;;22.20;77.20;;;;;;5050037;28;20540;-62
2022/03/22 15:28:23;;;;;;;5.38;2.45;;;22.20;77.20;;;;;;5050033;28;20041;-61
2022/03/22 15:30:50;;;;;;;7.32;2.70;;;22.20;77.10;;;;;;5050237;28;20029;-62
2022/03/22 15:33:17;;;;;;;4.00;2.40;;;22.20;77.20;;;;;;5050330;28;20067;-61
2022/03/22 15:35:46;;;;;;;4.25;2.70;;;22.20;77.50;;;;;;5050847;28;20049;-62
2022/03/22 15:38:14;;;;;;;5.00;2.50;;;22.20;77.70;;;;;;5050407;28;20040;-62
2022/03/22 15:40:41;;;;;;;12.02;2.75;;;22.20;77.60;;;;;;5050188;28;20037;-61
2022/03/22 15:43:08;;;;;;;5.60;2.83;;;22.20;77.60;;;;;;5047805;28;20033;-61
2022/03/22 15:45:36;;;;;;;6.88;2.80;;;22.20;78.10;;;;;;5037453;28;20065;-61
2022/03/22 15:48:04;;;;;;;7.85;2.70;;;22.10;78.10;;;;;;5032589;28;20053;-61
2022/03/22 15:50:31;;;;;;;7.32;2.95;;;22.10;78.20;;;;;;5049345;28;20456;-61
2022/03/22 15:53:03;;;;;;;7.05;2.80;;;22.10;78.20;;;;;;5049697;28;20063;-61
2022/03/22 15:55:30;;;;;;;5.57;2.65;;;22.10;78.40;;;;;;5050084;28;20079;-62
2022/03/22 15:57:59;;;;;;;6.68;2.38;;;22.10;78.30;;;;;;5046006;28;20038;-62
2022/03/22 16:00:27;;;;;;;7.05;2.85;;;22.10;78.40;;;;;;5032106;28;20048;-60
2022/03/22 16:02:55;;;;;;;5.65;2.67;;;22.10;78.40;;;;;;5048524;28;20483;-62
2022/03/22 16:05:22;;;;;;;6.10;2.78;;;22.10;78.50;;;;;;5049721;28;20095;-62
2022/03/22 16:07:49;;;;;;;5.18;2.85;;;22.00;78.90;;;;;;5050015;28;20117;-62
2022/03/22 16:10:17;;;;;;;5.10;2.83;;;22.00;79.10;;;;;;5050076;28;20045;-62
2022/03/22 16:12:45;;;;;;;5.28;2.42;;;22.00;79.10;;;;;;5032526;28;20033;-61
2022/03/22 16:15:12;;;;;;;4.55;2.40;;;22.00;79.30;;;;;;5047690;28;20037;-61
2022/03/22 16:17:40;;;;;;;4.10;2.65;;;22.00;79.30;;;;;;5031130;28;20037;-61
2022/03/22 16:20:10;;;;;;;5.80;2.97;;;22.00;79.50;;;;;;5032134;28;20494;-61
2022/03/22 16:22:38;;;;;;;5.82;2.70;;;22.00;79.70;;;;;;5050156;28;20102;-61
2022/03/22 16:25:09;;;;;;;5.30;2.85;;;22.00;80.20;;;;;;5049311;28;20433;-61
2022/03/22 16:27:40;;;;;;;4.90;2.67;;;21.90;80.00;;;;;;5049200;28;20296;-60
2022/03/22 16:30:12;;;;;;;6.63;2.78;;;21.90;80.00;;;;;;5047392;28;20056;-61
2022/03/22 16:38:10;;;;;;;7.90;2.90;;;21.90;80.20;;;;;;5053909;28;20040;-61
2022/03/22 16:40:38;;;;;;;5.60;2.67;;;21.90;80.30;;;;;;5054006;28;20029;-61
2022/03/22 16:43:05;;;;;;;4.93;3.00;;;21.90;80.10;;;;;;5052378;28;20423;-61
2022/03/22 16:45:39;;;;;;;5.00;2.50;;;21.90;80.00;;;;;;5052807;28;20036;-61
2022/03/22 16:48:13;;;;;;;4.40;2.85;;;21.90;80.00;;;;;;5053023;28;20056;-61
2022/03/22 16:50:41;;;;;;;4.05;2.75;;;21.90;80.00;;;;;;5036166;28;20067;-61
2022/03/22 16:53:08;;;;;;;10.40;3.08;;;21.90;79.90;;;;;;5051363;28;20603;-61
2022/03/22 16:55:38;;;;;;;5.93;2.70;;;21.80;79.90;;;;;;5040409;28;20053;-61
2022/03/22 16:58:06;;;;;;;6.32;2.90;;;21.80;80.20;;;;;;5049946;28;20051;-61
2022/03/22 17:00:33;;;;;;;5.70;2.95;;;21.80;79.80;;;;;;5035311;28;20049;-61
2022/03/22 17:03:00;;;;;;;3.85;2.53;;;21.80;79.50;;;;;;5017263;28;20116;-61
2022/03/22 17:05:28;;;;;;;4.05;2.55;;;21.80;79.70;;;;;;5046931;28;20036;-61
2022/03/22 17:07:56;;;;;;;5.13;2.78;;;21.80;79.30;;;;;;5052916;28;20116;-61
2022/03/22 17:10:23;;;;;;;6.00;2.50;;;21.80;79.50;;;;;;5035504;28;20033;-61
2022/03/22 17:12:50;;;;;;;4.88;2.78;;;21.80;79.70;;;;;;5025106;28;20132;-61
2022/03/22 17:15:18;;;;;;;6.20;2.80;;;21.70;80.00;;;;;;5052706;28;20037;-61
2022/03/22 17:17:47;;;;;;;7.25;3.15;;;21.70;80.20;;;;;;5053104;28;20040;-61
2022/03/22 17:20:15;;;;;;;4.68;2.70;;;21.70;80.30;;;;;;5052683;28;20037;-61
2022/03/22 17:22:42;;;;;;;5.93;3.00;;;21.70;80.40;;;;;;5053066;28;20036;-60
2022/03/22 17:25:09;;;;;;;7.28;3.20;;;21.60;80.40;;;;;;5047003;28;20388;-61
2022/03/22 17:27:37;;;;;;;6.18;2.55;;;21.60;80.60;;;;;;5032687;28;20050;-61
2022/03/22 17:30:05;;;;;;;7.75;3.03;;;21.60;80.70;;;;;;5032835;28;20095;-61
2022/03/22 17:32:32;;;;;;;6.32;2.75;;;21.60;80.80;;;;;;5032589;28;20440;-61
2022/03/22 17:35:01;;;;;;;5.45;2.72;;;21.60;81.00;;;;;;5041616;28;20124;-61
2022/03/22 17:37:29;;;;;;;7.00;2.75;;;21.60;81.30;;;;;;5027410;28;20033;-61
2022/03/22 17:39:58;;;;;;;6.03;2.95;;;21.60;81.60;;;;;;5032436;28;20669;-61
2022/03/22 17:42:25;;;;;;;5.22;2.85;;;21.50;81.70;;;;;;5031264;28;20432;-61
2022/03/22 17:44:52;;;;;;;9.05;3.17;;;21.50;81.90;;;;;;5042571;28;20017;-61
2022/03/22 17:47:21;;;;;;;4.05;2.55;;;21.60;82.10;;;;;;5051680;28;20050;-61
2022/03/22 17:49:48;;;;;;;9.35;2.85;;;21.60;82.40;;;;;;5034771;28;20037;-61
2022/03/22 17:52:16;;;;;;;9.50;3.45;;;21.60;82.50;;;;;;5051277;28;20490;-61
2022/03/22 17:54:43;;;;;;;10.43;3.22;;;21.60;82.90;;;;;;5051437;28;20135;-61
2022/03/22 17:57:10;;;;;;;12.63;3.58;;;21.50;83.10;;;;;;5052007;28;20045;-61
2022/03/22 17:59:38;;;;;;;10.38;3.25;;;21.50;83.20;;;;;;5051769;28;20045;-61
2022/03/22 18:02:05;;;;;;;13.25;3.55;;;21.50;83.50;;;;;;5044776;28;20037;-61
2022/03/22 18:04:32;;;;;;;5.93;3.20;;;21.50;83.60;;;;;;5040666;28;20044;-61
2022/03/22 18:06:59;;;;;;;6.35;3.30;;;21.50;83.70;;;;;;5051368;28;20072;-61
2022/03/22 18:09:27;;;;;;;7.97;3.17;;;21.50;83.80;;;;;;5051583;28;20049;-61
2022/03/22 18:11:55;;;;;;;7.22;3.28;;;21.50;84.00;;;;;;5051706;28;20048;-61
2022/03/22 18:14:24;;;;;;;5.32;3.17;;;21.50;84.10;;;;;;5033824;28;20494;-61
2022/03/22 18:16:54;;;;;;;6.70;2.83;;;21.50;84.10;;;;;;5044561;28;20033;-61
2022/03/22 18:19:21;;;;;;;;;;;21.50;83.90;;;;;;5035858;28;20032;-61
2022/03/22 18:21:49;;;;;;;6.07;3.00;;;21.50;83.80;;;;;;5051347;28;19916;-61
2022/03/22 18:24:16;;;;;;;11.02;3.60;;;21.50;83.90;;;;;;5051864;28;20421;-61
2022/03/22 18:26:44;;;;;;;5.68;2.85;;;21.50;84.00;;;;;;5051110;28;20045;-61
2022/03/22 18:29:12;;;;;;;6.20;3.17;;;21.50;84.00;;;;;;5041403;28;20041;-61
2022/03/22 18:31:39;;;;;;;5.65;2.90;;;21.50;84.10;;;;;;5038221;28;20444;-61
2022/03/22 18:34:07;;;;;;;6.80;2.90;;;21.50;83.80;;;;;;5016460;28;20040;-61
2022/03/22 18:36:38;;;;;;;8.38;3.08;;;21.50;83.40;;;;;;5050596;28;20407;-61
2022/03/22 18:39:07;;;;;;;5.05;2.75;;;21.50;83.00;;;;;;5050558;28;20037;-61
2022/03/22 18:41:34;;;;;;;4.63;2.72;;;21.60;82.40;;;;;;5049709;28;20395;-61
2022/03/22 18:44:01;;;;;;;6.55;2.75;;;21.60;82.10;;;;;;5049259;28;20641;-61
2022/03/22 18:46:29;;;;;;;6.10;2.67;;;21.60;81.60;;;;;;5067433;28;20036;-61
2022/03/22 18:48:56;;;;;;;6.07;2.70;;;21.70;81.10;;;;;;5050858;28;20119;-61
2022/03/22 18:51:23;;;;;;;5.32;2.90;;;21.70;80.50;;;;;;5032898;28;20044;-61
2022/03/22 18:53:51;;;;;;;3.92;2.70;;;21.70;80.60;;;;;;5050813;28;20040;-61
2022/03/22 18:56:18;;;;;;;6.20;2.90;;;21.70;80.70;;;;;;5050548;28;20128;-60
2022/03/22 18:58:45;;;;;;;9.38;2.70;;;21.70;80.60;;;;;;5050505;28;20071;-61
2022/03/22 19:01:13;;;;;;;8.18;3.40;;;21.70;80.90;;;;;;5051068;28;20076;-61
2022/03/22 19:03:41;;;;;;;14.57;4.07;;;21.70;81.30;;;;;;5049714;28;20177;-61
2022/03/22 19:06:08;;;;;;;12.90;3.88;;;21.70;81.90;;;;;;5050446;28;20091;-61
2022/03/22 19:08:38;;;;;;;10.65;3.58;;;21.60;82.30;;;;;;5011899;28;20045;-61
2022/03/22 21:47:24;;;;;;;35.30;5.78;;;22.40;88.30;;;;;;5048481;28;20048;-65
2022/03/22 21:49:54;;;;;;;18.05;3.83;;;22.40;88.10;;;;;;5018288;28;20115;-66
2022/03/22 21:52:21;;;;;;;18.98;4.18;;;22.40;88.00;;;;;;5051589;28;20031;-65
2022/03/22 21:54:49;;;;;;;21.92;4.85;;;22.40;87.80;;;;;;5051817;28;20085;-65
2022/03/22 21:57:16;;;;;;;22.38;4.93;;;22.40;88.20;;;;;;5033986;28;20033;-65
2022/03/22 21:59:43;;;;;;;19.90;4.88;;;22.40;88.20;;;;;;5051820;28;20102;-65
2022/03/22 22:02:11;;;;;;;24.17;4.70;;;22.30;87.70;;;;;;5034238;28;20048;-65
2022/03/22 22:04:38;;;;;;;19.48;4.80;;;22.30;87.90;;;;;;5051704;28;20100;-65
2022/03/22 22:07:05;;;;;;;19.55;4.53;;;22.30;88.00;;;;;;5033949;28;20064;-65
2022/03/22 22:09:32;;;;;;;23.33;5.13;;;22.30;87.80;;;;;;5051813;28;20068;-65
2022/03/22 22:11:59;;;;;;;28.95;4.43;;;22.30;87.70;;;;;;5051742;28;20033;-65
2022/03/22 22:14:26;;;;;;;14.23;3.55;;;22.30;87.00;;;;;;5051682;28;20033;-65
2022/03/22 22:16:54;;;;;;;23.35;4.45;;;22.30;87.10;;;;;;5051755;28;20033;-65
2022/03/22 22:19:21;;;;;;;19.33;4.20;;;22.40;87.00;;;;;;5051438;28;20495;-65
2022/03/22 22:21:50;;;;;;;17.00;4.07;;;22.30;87.30;;;;;;5051793;28;20033;-65
2022/03/22 22:24:17;;;;;;;18.60;4.47;;;22.30;87.50;;;;;;5051549;28;20033;-65
2022/03/22 22:26:44;;;;;;;23.50;4.68;;;22.30;87.40;;;;;;5033221;28;20032;-64
2022/03/22 22:29:12;;;;;;;23.60;5.13;;;22.40;87.40;;;;;;5050420;28;20090;-64
2022/03/22 22:34:24;;;;;;;28.65;4.97;;;22.30;87.40;;;;;;5051386;28;20051;-64
2022/03/22 22:36:52;;;;;;;22.75;4.32;;;22.40;88.10;;;;;;5051325;28;20395;-64
2022/03/22 22:39:20;;;;;;;30.17;4.90;;;22.40;88.20;;;;;;5050929;28;20120;-65
2022/03/22 22:41:47;;;;;;;21.15;4.70;;;22.50;88.00;;;;;;5050973;28;20447;-64
2022/03/22 22:44:14;;;;;;;29.98;4.85;;;22.40;87.80;;;;;;5051276;28;20036;-63
2022/03/22 22:46:42;;;;;;;22.63;5.15;;;22.50;87.20;;;;;;5050599;28;20076;-66
2022/03/22 22:49:09;;;;;;;23.73;4.70;;;22.60;87.40;;;;;;5051098;28;20497;-64
2022/03/22 22:51:36;;;;;;;20.13;4.50;;;22.70;86.80;;;;;;5051210;28;20037;-64
2022/03/22 22:54:04;;;;;;;18.73;3.80;;;22.80;86.30;;;;;;5050964;28;20475;-64
2022/03/22 22:56:32;;;;;;;22.33;4.28;;;22.80;85.30;;;;;;5051058;28;20112;-64
2022/03/22 22:58:59;;;;;;;24.90;5.10;;;22.90;85.70;;;;;;5050845;28;20044;-63
2022/03/22 23:01:30;;;;;;;33.42;4.90;;;23.00;85.00;;;;;;5050940;28;20032;-64
2022/03/22 23:03:58;;;;;;;15.25;4.40;;;23.00;84.70;;;;;;5050904;28;20036;-66
2022/03/22 23:10:08;;;;;;;19.00;4.43;;;23.10;85.40;;;;;;5033596;28;20495;-63
2022/03/22 23:11:56;;;;;;;26.10;5.10;;;23.30;85.30;;;;;;5051229;28;20177;-63
2022/03/22 23:14:24;;;;;;;23.02;4.57;;;23.30;85.10;;;;;;5051179;28;20078;-64
2022/03/22 23:16:51;;;;;;;21.33;4.85;;;23.20;83.60;;;;;;5050856;28;20035;-63
2022/03/22 23:19:18;;;;;;;17.42;4.13;;;23.10;83.80;;;;;;5033261;28;20115;-64
2022/03/22 23:21:46;;;;;;;28.27;4.80;;;23.20;84.00;;;;;;5050615;28;20036;-65
2022/03/22 23:24:13;;;;;;;23.77;4.82;;;23.20;84.10;;;;;;5050685;28;20107;-64
2022/03/22 23:26:40;;;;;;;18.15;4.05;;;23.20;84.30;;;;;;5050739;28;20021;-65
2022/03/22 23:29:07;;;;;;;20.40;4.95;;;23.30;84.00;;;;;;5050380;28;20065;-64
2022/03/22 23:31:34;;;;;;;12.20;3.47;;;23.30;82.90;;;;;;5050387;28;20028;-64
2022/03/22 23:34:02;;;;;;;16.33;3.75;;;23.30;83.10;;;;;;5050332;28;20040;-66
2022/03/22 23:36:29;;;;;;;24.65;5.18;;;23.20;83.30;;;;;;5050184;28;20037;-64
2022/03/22 23:38:56;;;;;;;17.33;3.95;;;23.20;83.40;;;;;;5051657;28;20037;-64
2022/03/22 23:41:23;;;;;;;26.35;4.72;;;23.20;83.60;;;;;;5054716;28;20083;-64
2022/03/22 23:43:51;;;;;;;19.90;4.78;;;23.30;84.20;;;;;;5054653;28;20029;-64
2022/03/22 23:46:18;;;;;;;25.23;4.80;;;23.30;83.30;;;;;;5054598;28;20064;-64
2022/03/22 23:48:45;;;;;;;22.88;4.80;;;23.30;83.30;;;;;;5054451;28;20503;-65
2022/03/22 23:51:12;;;;;;;23.90;3.88;;;23.30;82.70;;;;;;5054567;28;20372;-65
2022/03/22 23:53:40;;;;;;;18.88;4.10;;;23.30;83.00;;;;;;5054873;28;20135;-64
2022/03/22 23:56:07;;;;;;;19.63;5.30;;;23.30;83.10;;;;;;5054514;28;20025;-64
2022/03/22 23:58:34;;;;;;;13.75;3.72;;;23.30;82.90;;;;;;5054023;28;20029;-65
